Jonquiere, Canada
Current Conditions -  °F | °C
As of 11:00 PM on Wednesday 17 Dec 2014 (Local Time) from CYBG Reporting Station
Light Snow Light Snow  
Wind Chill: 23°   Ceiling: 1900
Heat Index: 28°   Visibility: 3mi
Dew Point: 27°   Wind: 5mph
Humidity: 93%   Direction: 50°NE
Pressure: 29.83"   Gusts: NA
Location:  48.41°N, 71.25°W
Report Text: CYBG 180400Z 05004KT 3SM -SN SCT007 OVC019 M02/M03 A2983 RMK SF4SC4 /S01/ SLP111
Loading
Personal Weather Stations






























Interactive Weather Map New forecast layout! Learn more

10-Day Weather Forecast

Advertisements
Track Severe Weather on mobile